Main page
METAR-TAF:

METAR-TAF

Airports :

Oberpfaffenhofen, Germany

latitude: 48-05N, longitude: 011-17E, elevation: 600 m

Current weather observation

The report was made 25 minutes ago, at 09:20 UTC
Wind 8 kt from the West/Southwest
Temperature 3°C
Humidity 87%
Pressure 1026 hPa
Visibility 10 km or more
Few clouds at a height of 2000 ft
Broken clouds at a height of 4700 ft

METAR: EDMO 230920Z 24008KT 9999 FEW020 BKN047 03/01 Q1026

Time: 10:45 (09:45 UTC)

Forecast

The report was made 1 hour and 45 minutes ago, at 08:00 UTC
Forecast valid from 23 at 09 UTC to 23 at 18 UTC
Wind 8 kt from the West/Southwest
Visibility 10 km or more
Broken clouds at a height of 3000 ft

TAF: EDMO 230800Z 2309/2318 24008KT 9999 BKN030

Weather observations and forecasts of more than 4000 airports (METAR and TAF reports).

The available stations are represented by yellow and red dots on the map.

Hover mouse over dot to see the name of the station.

Then click to see weather observations and forecasts.

To change the map : click on the green buttons with a black cross to zoom in, on the green button with a dash to zoom out, or on the green arrows for adjacent maps.


METAR-TAF: